Weather History for KCTZ - January, 2014

Change the Weather History Date:

Saturday, January 11, 2014

  Actual Average (KFAY) Record (KFAY)
Temperature  
Mean Temperature 64 °F 43 °F  
Max Temperature 74 °F 53 °F 76 °F (1974)
Min Temperature 55 °F 33 °F 7 °F (1982)
Degree Days  
Heating Degree Days 0 22  
Month to date heating degree days 242  
Since 1 July heating degree days 1301  
Cooling Degree Days 0 0  
Month to date cooling degree days 0  
Year to date cooling degree days 0  
Growing Degree Days 14 (Base 50)    
Moisture  
Dew Point 63 °F    
Average Humidity 96    
Maximum Humidity 100    
Minimum Humidity 78    
Precipitation  
Precipitation 0.49 in 0.11 in 2.22 in (1972)
Month to date precipitation 1.07  
Year to date precipitation 1.07  
Sea Level Pressure  
Sea Level Pressure 29.84 in    
Wind  
Wind Speed 6 mph (SSW)    
Max Wind Speed 25 mph    
Max Gust Speed 38 mph    
Visibility 9 miles    
Events Rain    
T = Trace of Precipitation, MM = Missing Value Source: NWS Daily Summary

Daily Weather History Graph

Daily Weather History Graph

Search for Another Location

Airport or City:

Trip Planner

Search our weather history database for the weather conditions in past years. The results will help you decide how hot, cold, wet, or windy it might be!

Date:

Astronomy

Jan. 11, 2014 Rise Set
Actual Time 7:21 AM EST 5:21 PM EST
Civil Twilight 6:54 AM EST 5:49 PM EST
Nautical Twilight 6:22 AM EST 6:20 PM EST
Astronomical Twilight 5:52 AM EST 6:50 PM EST
Moon 2:02 PM EST (1/11) 3:26 AM EST (1/11)
Length of Visible Light 10h 55m
Length of Day
9h 59m
Waxing Gibbous, 83% of the Moon is Illuminated
Jan 11
Waxing Gibbous
Jan 15
Full
Jan 24
Last Quarter
Jan 30
New
Feb 6
First Quarter

Hourly Weather History & Observations

Time (EST) Temp. Dew Point Humidity Pressure Visibility Wind Dir Wind Speed Gust Speed Precip Events Conditions
12:15 AM 65.8 °F 65.8 °F 100% 30.09 in 10.0 mi South 4.6 mph - N/A   Overcast
12:35 AM 65.8 °F 65.8 °F 100% 30.08 in 5.0 mi SSW 3.5 mph - N/A   Overcast
12:55 AM 66.0 °F 66.0 °F 100% 30.07 in 10.0 mi South 3.5 mph - N/A   Overcast
1:15 AM 65.7 °F 65.7 °F 100% 30.06 in 10.0 mi South 3.5 mph - N/A   Overcast
1:35 AM 65.3 °F 65.3 °F 100% 30.06 in 10.0 mi Calm Calm - N/A   Overcast
1:55 AM 65.3 °F 65.3 °F 100% 30.05 in 10.0 mi South 4.6 mph - N/A   Overcast
2:15 AM 65.3 °F 65.3 °F 100% 30.04 in 10.0 mi SSE 3.5 mph - N/A   Overcast
2:35 AM 65.3 °F 65.3 °F 100% 30.03 in 10.0 mi SSE 5.8 mph - N/A   Overcast
2:55 AM 65.5 °F 65.5 °F 100% 30.02 in 7.0 mi SSE 3.5 mph - N/A   Overcast
3:15 AM 65.7 °F 65.7 °F 100% 30.02 in 10.0 mi South 8.1 mph - N/A   Overcast
3:35 AM 65.8 °F 65.8 °F 100% 30.01 in 10.0 mi South 5.8 mph - N/A   Overcast
3:55 AM 65.7 °F 65.5 °F 99% 30.00 in 10.0 mi South 6.9 mph - N/A   Overcast
4:15 AM 65.5 °F 65.3 °F 99% 29.99 in 10.0 mi South 5.8 mph - N/A   Overcast
4:35 AM 65.3 °F 65.1 °F 99% 29.98 in 10.0 mi Calm Calm - N/A   Overcast
4:55 AM 65.3 °F 65.3 °F 100% 29.97 in 10.0 mi South 3.5 mph - N/A   Light Drizzle
5:15 AM 64.9 °F 64.9 °F 100% 29.96 in 10.0 mi South 4.6 mph - N/A   Overcast
5:35 AM 64.8 °F 64.8 °F 100% 29.96 in 10.0 mi South 4.6 mph - N/A   Overcast
5:55 AM 65.1 °F 65.1 °F 100% 29.96 in 10.0 mi South 5.8 mph - N/A   Overcast
6:15 AM 65.3 °F 65.3 °F 100% 29.96 in 10.0 mi South 5.8 mph - N/A   Overcast
6:35 AM 65.3 °F 65.3 °F 100% 29.95 in 7.0 mi South 5.8 mph - N/A   Overcast
6:55 AM 65.7 °F 65.7 °F 100% 29.94 in 10.0 mi South 5.8 mph - N/A   Overcast
7:15 AM 65.7 °F 65.7 °F 100% 29.94 in 7.0 mi South 8.1 mph - N/A   Overcast
7:35 AM 66.2 °F 66.2 °F 100% 29.93 in 7.0 mi South 6.9 mph - N/A   Overcast
7:55 AM 66.2 °F 66.2 °F 100% 29.93 in 5.0 mi South 8.1 mph - N/A   Overcast
8:15 AM 66.6 °F 66.2 °F 99% 29.93 in 10.0 mi SSW 5.8 mph - N/A   Overcast
8:35 AM 67.3 °F 66.2 °F 96% 29.91 in 10.0 mi South 11.5 mph - N/A   Overcast
8:55 AM 67.8 °F 66.4 °F 95% 29.91 in 10.0 mi South 6.9 mph - N/A   Overcast
9:15 AM 68.5 °F 66.6 °F 93% 29.91 in 10.0 mi South 5.8 mph - N/A   Overcast
9:35 AM 69.1 °F 66.7 °F 92% 29.91 in 10.0 mi SSW 9.2 mph - N/A   Overcast
9:55 AM 69.4 °F 67.1 °F 92% 29.91 in 10.0 mi South 8.1 mph - N/A   Overcast
10:15 AM 69.6 °F 67.1 °F 92% 29.90 in 10.0 mi SSW 10.4 mph - N/A   Overcast
10:35 AM 69.8 °F 66.7 °F 90% 29.89 in 10.0 mi SSW 8.1 mph - N/A   Overcast
10:55 AM 70.2 °F 66.6 °F 88% 29.88 in 10.0 mi SSW 10.4 mph 19.6 mph N/A   Overcast
11:15 AM 70.3 °F 66.6 °F 88% 29.86 in 10.0 mi SSW 6.9 mph - N/A   Overcast
11:35 AM 71.8 °F 66.9 °F 85% 29.84 in 10.0 mi SW 12.7 mph 17.3 mph N/A   Overcast
11:55 AM 72.5 °F 66.9 °F 83% 29.81 in 10.0 mi SSW 5.8 mph 16.1 mph N/A   Overcast
12:15 PM 73.6 °F 67.3 °F 81% 29.78 in 10.0 mi South 10.4 mph 18.4 mph N/A   Overcast
12:35 PM 72.9 °F 67.1 °F 82% 29.76 in 10.0 mi South 8.1 mph 16.1 mph N/A   Overcast
12:55 PM 73.2 °F 66.7 °F 80% 29.74 in 10.0 mi SSW 8.1 mph 18.4 mph N/A   Overcast
1:15 PM 74.3 °F 67.1 °F 78% 29.72 in 10.0 mi South 9.2 mph 16.1 mph N/A   Overcast
1:35 PM 73.4 °F 67.1 °F 81% 29.70 in 10.0 mi South 6.9 mph 19.6 mph N/A   Overcast
1:55 PM 73.6 °F 67.3 °F 81% 29.69 in 10.0 mi SSW 9.2 mph - N/A   Overcast
2:15 PM 73.2 °F 67.6 °F 83% 29.69 in 7.0 mi SSW 11.5 mph 33.4 mph N/A Rain Rain
2:35 PM 73.6 °F 67.3 °F 81% 29.70 in 10.0 mi WSW 16.1 mph 27.6 mph N/A   Overcast
2:55 PM 72.3 °F 66.9 °F 83% 29.72 in 10.0 mi WSW 25.3 mph 38.0 mph N/A Rain Rain
3:15 PM 69.6 °F 64.4 °F 83% 29.74 in 10.0 mi West 18.4 mph 34.5 mph 0.01 in Rain Rain
3:35 PM 59.4 °F 58.3 °F 96% 29.75 in 4.0 mi West 13.8 mph 25.3 mph 0.10 in Rain Heavy Rain
3:55 PM 59.0 °F 58.3 °F 97% 29.75 in 5.0 mi West 10.4 mph 18.4 mph 0.26 in Rain Rain
4:15 PM 58.6 °F 57.6 °F 96% 29.75 in 10.0 mi WSW 11.5 mph 16.1 mph N/A Rain Rain
4:35 PM 58.3 °F 57.4 °F 97% 29.73 in 7.0 mi WSW 9.2 mph - 0.04 in Rain Rain
4:55 PM 58.1 °F 57.2 °F 97% 29.73 in 10.0 mi SW 5.8 mph - 0.05 in Rain Light Rain
5:15 PM 57.6 °F 57.2 °F 99% 29.72 in 10.0 mi SW 3.5 mph - N/A Rain Light Rain
5:35 PM 57.2 °F 57.2 °F 100% 29.72 in 7.0 mi SSE 4.6 mph - 0.03 in Rain Light Rain
5:55 PM 56.8 °F 56.8 °F 100% 29.71 in 10.0 mi South 4.6 mph - 0.04 in Rain Rain
6:15 PM 56.7 °F 56.7 °F 100% 29.71 in 7.0 mi South 4.6 mph - 0.03 in Rain Rain
6:35 PM 56.7 °F 56.7 °F 100% 29.71 in 7.0 mi South 3.5 mph - 0.05 in Rain Rain
6:55 PM 56.3 °F 56.3 °F 100% 29.72 in 7.0 mi South 4.6 mph - 0.09 in Rain Rain
7:15 PM 56.3 °F 56.3 °F 100% 29.69 in 7.0 mi South 6.9 mph - 0.03 in Rain Rain
7:35 PM 56.3 °F 56.3 °F 100% 29.66 in 10.0 mi SSE 4.6 mph - 0.04 in Rain Light Rain
7:55 PM 56.3 °F 56.3 °F 100% 29.69 in 10.0 mi South 4.6 mph - 0.04 in   Mostly Cloudy
8:15 PM 56.3 °F 56.3 °F 100% 29.69 in 10.0 mi SSW 3.5 mph - N/A   Mostly Cloudy
8:35 PM 55.8 °F 55.8 °F 100% 29.68 in 10.0 mi SSW 3.5 mph - 0.01 in   Scattered Clouds
8:55 PM 55.9 °F 55.9 °F 100% 29.67 in 10.0 mi SSW 3.5 mph - 0.01 in   Scattered Clouds
9:15 PM 55.6 °F 55.6 °F 100% 29.67 in 10.0 mi SW 5.8 mph - N/A   Scattered Clouds
9:35 PM 55.6 °F 55.6 °F 100% 29.67 in 10.0 mi SW 4.6 mph - N/A   Scattered Clouds
9:55 PM 55.4 °F 55.4 °F 100% 29.67 in 10.0 mi SW 6.9 mph - N/A   Clear
10:15 PM 55.4 °F 55.4 °F 100% 29.68 in 10.0 mi SW 8.1 mph - N/A   Clear
10:35 PM 55.2 °F 55.0 °F 99% 29.68 in 10.0 mi SW 8.1 mph - N/A   Clear
10:55 PM 55.0 °F 54.9 °F 99% 29.69 in 10.0 mi SW 9.2 mph - N/A   Clear
11:15 PM 55.4 °F 55.2 °F 99% 29.70 in 10.0 mi West 8.1 mph - N/A   Mostly Cloudy
11:35 PM 55.8 °F 55.2 °F 98% 29.71 in 10.0 mi West 10.4 mph 18.4 mph N/A   Mostly Cloudy
11:55 PM 55.6 °F 54.9 °F 97% 29.72 in 10.0 mi WSW 11.5 mph 16.1 mph N/A   Mostly Cloudy